createdAt,value
2023-03-29T00:01:34.900Z,100678.38
2023-03-29T00:04:07.286Z,100666.91
2023-03-29T00:06:35.633Z,100664.25
2023-03-29T00:09:07.061Z,100665.09
2023-03-29T00:11:39.321Z,100656.25
2023-03-29T00:14:07.831Z,100655.34
2023-03-29T00:16:36.051Z,100659.72
2023-03-29T00:19:04.634Z,100653.53
2023-03-29T00:21:32.981Z,100660.50
2023-03-29T00:24:01.524Z,100660.50
2023-03-29T00:26:31.191Z,100659.59
2023-03-29T00:29:01.990Z,100655.16
2023-03-29T00:31:30.317Z,100653.41
2023-03-29T00:33:58.649Z,100648.09
2023-03-29T00:36:27.859Z,100650.75
2023-03-29T00:38:57.527Z,100645.44
2023-03-29T00:41:26.094Z,100645.44
2023-03-29T00:43:59.377Z,100639.25
2023-03-29T00:46:29.818Z,100640.13
2023-03-29T00:49:03.806Z,100648.09
2023-03-29T00:51:35.429Z,100633.97
2023-03-29T00:54:06.964Z,100628.69
2023-03-29T00:56:40.056Z,100626.03
2023-03-29T00:59:13.717Z,100631.31
2023-03-29T01:01:50.524Z,100627.81
2023-03-29T01:04:29.631Z,100626.94
2023-03-29T01:07:02.030Z,100634.03
2023-03-29T01:09:33.437Z,100620.81
2023-03-29T01:12:06.976Z,100618.16
2023-03-29T01:14:41.150Z,100611.09
2023-03-29T01:17:09.866Z,100614.63
2023-03-29T01:19:43.462Z,100609.31
2023-03-29T01:22:26.021Z,100602.28
2023-03-29T01:25:07.344Z,100609.31
2023-03-29T01:27:54.335Z,100607.56
2023-03-29T01:30:29.873Z,100609.38
2023-03-29T01:33:01.384Z,100596.13
2023-03-29T01:35:35.755Z,100597.91
2023-03-29T01:38:10.835Z,100596.09
2023-03-29T01:40:39.285Z,100595.22
2023-03-29T01:43:22.516Z,100597.03
2023-03-29T01:46:01.489Z,100590.84
2023-03-29T01:48:34.195Z,100589.97
2023-03-29T01:51:10.709Z,100581.09
2023-03-29T01:53:47.225Z,100570.53
2023-03-29T01:56:19.341Z,100579.34
2023-03-29T01:58:55.561Z,100569.59
2023-03-29T02:01:30.061Z,100574.91
2023-03-29T02:04:03.848Z,100572.25
2023-03-29T02:06:36.029Z,100570.50
2023-03-29T02:09:04.983Z,100570.47
2023-03-29T02:11:34.332Z,100558.13
2023-03-29T02:14:04.576Z,100552.78
2023-03-29T02:16:36.316Z,100552.78
2023-03-29T02:19:08.862Z,100555.44
2023-03-29T02:21:43.627Z,100545.72
2023-03-29T02:24:16.420Z,100544.84
2023-03-29T02:26:45.023Z,100541.28
2023-03-29T02:29:14.940Z,100543.97
2023-03-29T02:31:47.751Z,100535.13
2023-03-29T02:34:22.419Z,100533.34
2023-03-29T02:36:54.667Z,100530.78
2023-03-29T02:39:25.441Z,100514.94
2023-03-29T02:41:55.904Z,100526.44
2023-03-29T02:44:29.260Z,100520.28
2023-03-29T02:47:02.129Z,100514.19
2023-03-29T02:49:33.825Z,100503.63
2023-03-29T02:52:09.905Z,100509.81
2023-03-29T02:54:43.655Z,100511.53
2023-03-29T02:57:13.566Z,100505.34
2023-03-29T02:59:44.990Z,100500.13
2023-03-29T03:02:13.784Z,100506.28
2023-03-29T03:04:44.714Z,100500.97
2023-03-29T03:07:15.793Z,100508.06
2023-03-29T03:09:44.206Z,100494.84
2023-03-29T03:12:12.472Z,100501.94
2023-03-29T03:14:40.726Z,100499.34
2023-03-29T03:17:10.278Z,100497.63
2023-03-29T03:19:39.694Z,100493.22
2023-03-29T03:22:07.866Z,100495.91
2023-03-29T03:24:36.140Z,100495.91
2023-03-29T03:27:04.957Z,100494.16
2023-03-29T03:29:33.130Z,100496.78
2023-03-29T03:32:22.883Z,100490.63
2023-03-29T03:35:11.639Z,100491.47
2023-03-29T03:37:42.113Z,100492.34
2023-03-29T03:40:13.532Z,100487.00
2023-03-29T03:42:42.636Z,100485.25
2023-03-29T03:45:12.253Z,100488.78
2023-03-29T03:47:41.937Z,100490.56
2023-03-29T03:50:21.725Z,100482.66
2023-03-29T03:52:49.909Z,100483.63
2023-03-29T03:55:18.259Z,100482.75
2023-03-29T03:57:53.570Z,100471.38
2023-03-29T04:00:23.395Z,100481.09
2023-03-29T04:03:25.494Z,100478.53
2023-03-29T04:05:56.285Z,100475.97
2023-03-29T04:08:28.592Z,100478.63
2023-03-29T04:11:15.315Z,100479.50
2023-03-29T04:13:44.271Z,100477.75
2023-03-29T04:16:38.283Z,100469.00
2023-03-29T04:19:27.824Z,100463.69
2023-03-29T04:21:55.926Z,100473.34
2023-03-29T04:24:25.139Z,100472.50
2023-03-29T04:27:13.335Z,100475.16
2023-03-29T04:29:44.749Z,100475.13
2023-03-29T04:32:21.058Z,100476.91
2023-03-29T04:37:43.242Z,100476.16
2023-03-29T04:40:15.218Z,100477.00
2023-03-29T04:42:54.748Z,100476.97
2023-03-29T04:45:23.511Z,100479.66
2023-03-29T04:48:11.942Z,100483.19
2023-03-29T04:50:47.755Z,100478.84
2023-03-29T04:53:19.125Z,100470.91
2023-03-29T04:55:47.957Z,100467.44
2023-03-29T04:58:26.091Z,100466.59
2023-03-29T05:00:59.583Z,100477.16
2023-03-29T05:03:36.431Z,100480.72
2023-03-29T05:06:13.641Z,100485.09
2023-03-29T05:08:43.434Z,100488.66
2023-03-29T05:11:34.671Z,100490.41
2023-03-29T05:14:07.316Z,100487.75
2023-03-29T05:16:39.425Z,100494.81
2023-03-29T05:19:09.192Z,100494.81
2023-03-29T05:21:41.709Z,100490.41
2023-03-29T05:24:16.598Z,100491.28
2023-03-29T05:27:07.823Z,100496.56
2023-03-29T05:29:38.096Z,100494.75
2023-03-29T05:32:24.264Z,100493.88
2023-03-29T05:34:53.116Z,100490.31
2023-03-29T05:37:26.685Z,100492.03
2023-03-29T05:40:07.096Z,100488.47
2023-03-29T05:42:44.691Z,100481.38
2023-03-29T05:45:13.235Z,100469.94
2023-03-29T05:47:42.497Z,100489.22
2023-03-29T05:50:13.566Z,100485.66
2023-03-29T05:52:43.138Z,100482.97
2023-03-29T05:55:13.004Z,100472.41
2023-03-29T05:57:41.656Z,100488.16
2023-03-29T06:00:23.825Z,100484.53
2023-03-29T06:03:06.423Z,100483.63
2023-03-29T06:05:39.507Z,100497.59
2023-03-29T06:08:07.666Z,100492.22
2023-03-29T06:10:38.496Z,100497.41
2023-03-29T06:13:26.511Z,100500.81
2023-03-29T06:15:55.193Z,100499.81
2023-03-29T06:18:24.640Z,100498.94
2023-03-29T06:20:55.549Z,100492.59
2023-03-29T06:23:24.371Z,100505.66
2023-03-29T06:25:55.460Z,100502.00
2023-03-29T06:28:25.150Z,100507.97
2023-03-29T06:31:03.638Z,100503.47
2023-03-29T06:33:38.793Z,100504.78
2023-03-29T06:36:35.235Z,100501.75
2023-03-29T06:39:06.488Z,100501.53
2023-03-29T06:42:19.986Z,100502.59
2023-03-29T06:45:08.722Z,100501.59
2023-03-29T06:47:40.228Z,100501.25
2023-03-29T06:50:09.313Z,100506.44
2023-03-29T06:53:00.109Z,100512.16
2023-03-29T06:55:28.772Z,100514.38
2023-03-29T06:58:02.302Z,100514.34
2023-03-29T07:00:35.113Z,100515.97
2023-03-29T07:03:24.834Z,100514.19
2023-03-29T07:06:02.719Z,100515.75
2023-03-29T07:08:43.253Z,100519.09
2023-03-29T07:11:20.397Z,100501.34
2023-03-29T07:14:02.195Z,100506.00
2023-03-29T07:16:30.503Z,100508.41
2023-03-29T07:19:27.859Z,100511.97
2023-03-29T07:21:56.349Z,100494.06
2023-03-29T07:24:35.608Z,100512.72
2023-03-29T07:27:04.925Z,100501.22
2023-03-29T07:29:36.223Z,100515.09
2023-03-29T07:32:04.743Z,100514.66
2023-03-29T07:34:59.068Z,100519.03
2023-03-29T07:37:38.167Z,100520.50
2023-03-29T07:40:15.903Z,100512.63
2023-03-29T07:43:00.090Z,100514.06
2023-03-29T07:45:33.779Z,100514.97
2023-03-29T07:48:12.110Z,100517.03
2023-03-29T07:50:56.032Z,100515.59
2023-03-29T07:53:30.785Z,100516.66
2023-03-29T07:56:00.446Z,100518.84
2023-03-29T07:58:51.930Z,100517.72
2023-03-29T08:01:22.226Z,100530.91
2023-03-29T08:04:13.264Z,100517.47
2023-03-29T08:07:02.524Z,100523.97
2023-03-29T08:09:49.861Z,100517.09
2023-03-29T08:12:23.202Z,100515.53
2023-03-29T08:14:55.932Z,100523.06
2023-03-29T08:17:35.475Z,100516.59
2023-03-29T08:20:10.786Z,100517.63
2023-03-29T08:22:42.096Z,100520.47
2023-03-29T08:25:35.239Z,100520.03
2023-03-29T08:28:05.026Z,100522.84
2023-03-29T08:30:44.797Z,100523.94
2023-03-29T08:33:17.273Z,100509.72
2023-03-29T08:35:49.423Z,100508.94
2023-03-29T08:38:25.155Z,100510.47
2023-03-29T08:40:57.000Z,100516.81
2023-03-29T08:43:39.922Z,100518.47
2023-03-29T08:46:37.352Z,100516.06
2023-03-29T08:49:21.426Z,100519.72
2023-03-29T08:51:55.700Z,100513.59
2023-03-29T08:54:27.328Z,100514.59
2023-03-29T08:57:23.125Z,100509.03
2023-03-29T08:59:59.755Z,100515.31
2023-03-29T09:02:32.133Z,100495.56
2023-03-29T09:05:15.462Z,100516.94
2023-03-29T09:08:16.308Z,100507.94
2023-03-29T09:10:49.066Z,100516.47
2023-03-29T09:13:31.961Z,100505.09
2023-03-29T09:16:07.629Z,100513.41
2023-03-29T09:18:53.498Z,100516.19
2023-03-29T09:21:31.570Z,100516.53
2023-03-29T09:24:20.439Z,100514.06
2023-03-29T09:27:00.464Z,100510.81
2023-03-29T09:29:48.294Z,100519.84
2023-03-29T09:32:22.750Z,100513.31
2023-03-29T09:38:38.110Z,100497.03
2023-03-29T09:41:23.722Z,100506.16
2023-03-29T09:43:58.326Z,100496.66
2023-03-29T09:46:39.965Z,100493.09
2023-03-29T09:49:17.682Z,100494.75
2023-03-29T09:51:52.899Z,100502.63
2023-03-29T09:54:23.687Z,100512.44
2023-03-29T09:57:21.676Z,100508.34
2023-03-29T09:59:52.598Z,100508.06
2023-03-29T10:02:22.610Z,100499.66
2023-03-29T10:04:58.790Z,100501.16
2023-03-29T10:07:37.572Z,100490.81
2023-03-29T10:10:11.609Z,100482.91
2023-03-29T10:12:40.320Z,100477.50
2023-03-29T10:15:26.728Z,100480.38
2023-03-29T10:18:04.874Z,100478.41
2023-03-29T10:20:38.481Z,100471.03
2023-03-29T10:23:09.151Z,100473.78
2023-03-29T10:25:42.815Z,100464.25
2023-03-29T10:28:14.756Z,100466.84
2023-03-29T10:30:43.827Z,100470.25
2023-03-29T10:33:18.683Z,100450.53
2023-03-29T10:35:50.062Z,100448.72
2023-03-29T10:38:20.957Z,100450.03
2023-03-29T10:40:52.346Z,100445.03
2023-03-29T10:43:24.774Z,100450.16
2023-03-29T10:45:55.150Z,100448.22
2023-03-29T10:48:29.541Z,100438.19
2023-03-29T10:51:01.613Z,100439.84
2023-03-29T10:53:34.939Z,100424.63
2023-03-29T10:56:27.933Z,100425.66
2023-03-29T10:59:09.106Z,100429.09
2023-03-29T11:01:50.820Z,100432.53
2023-03-29T11:04:29.407Z,100427.25
2023-03-29T11:07:16.649Z,100433.41
2023-03-29T11:09:51.338Z,100427.44
2023-03-29T11:12:27.135Z,100429.91
2023-03-29T11:15:11.181Z,100418.91
2023-03-29T11:17:56.752Z,100436.63
2023-03-29T11:20:36.450Z,100417.53
2023-03-29T11:23:18.867Z,100424.88
2023-03-29T11:26:00.423Z,100425.72
2023-03-29T11:28:38.311Z,100429.78
2023-03-29T11:31:14.622Z,100430.44
2023-03-29T11:33:57.329Z,100438.97
2023-03-29T11:36:36.323Z,100423.94
2023-03-29T11:39:12.009Z,100417.38
2023-03-29T11:41:47.671Z,100424.19
2023-03-29T11:44:22.302Z,100415.56
2023-03-29T11:47:02.353Z,100417.94
2023-03-29T11:49:35.785Z,100411.56
2023-03-29T11:52:12.779Z,100410.03
2023-03-29T11:54:45.033Z,100410.41
2023-03-29T11:57:19.678Z,100410.31
2023-03-29T11:59:56.528Z,100411.53
2023-03-29T12:02:34.229Z,100415.38
2023-03-29T12:05:14.719Z,100401.72
2023-03-29T12:07:46.770Z,100388.06
2023-03-29T12:10:20.549Z,100393.63
2023-03-29T12:12:56.237Z,100388.47
2023-03-29T12:15:28.087Z,100385.03
2023-03-29T12:18:03.876Z,100368.75
2023-03-29T12:20:37.232Z,100378.88
2023-03-29T12:23:07.434Z,100356.91
2023-03-29T12:25:42.234Z,100378.97
2023-03-29T12:28:27.236Z,100370.69
2023-03-29T12:31:08.566Z,100371.09
2023-03-29T12:34:08.093Z,100369.06
2023-03-29T12:37:18.077Z,100375.06
2023-03-29T12:40:15.235Z,100368.06
2023-03-29T12:43:06.071Z,100375.22
2023-03-29T12:45:54.898Z,100368.41
2023-03-29T12:48:27.714Z,100366.44
2023-03-29T12:51:01.201Z,100360.19
2023-03-29T12:53:33.039Z,100360.38
2023-03-29T12:56:14.357Z,100354.22
2023-03-29T12:58:53.037Z,100353.06
2023-03-29T13:01:30.244Z,100339.50
2023-03-29T13:04:20.018Z,100345.03
2023-03-29T13:07:06.147Z,100338.03
2023-03-29T13:09:49.692Z,100330.84
2023-03-29T13:12:27.870Z,100334.56
2023-03-29T13:14:59.199Z,100327.19
2023-03-29T13:17:35.257Z,100324.28
2023-03-29T13:20:25.873Z,100322.41
2023-03-29T13:23:08.317Z,100323.56
2023-03-29T13:25:48.999Z,100320.09
2023-03-29T13:28:24.566Z,100306.97
2023-03-29T13:31:01.174Z,100308.63
2023-03-29T13:33:53.599Z,100310.00
2023-03-29T13:36:35.229Z,100313.72
2023-03-29T13:39:07.713Z,100302.34
2023-03-29T13:41:48.755Z,100301.91
2023-03-29T13:44:27.799Z,100307.97
2023-03-29T13:47:14.208Z,100301.69
2023-03-29T13:49:45.410Z,100292.88
2023-03-29T13:52:20.009Z,100292.44
2023-03-29T13:54:54.973Z,100291.56
2023-03-29T13:57:27.752Z,100288.56
2023-03-29T14:00:00.519Z,100285.78
2023-03-29T14:02:42.037Z,100286.38
2023-03-29T14:05:13.949Z,100276.13
2023-03-29T14:07:48.185Z,100270.16
2023-03-29T14:10:19.415Z,100267.34
2023-03-29T14:12:48.516Z,100258.53
2023-03-29T14:15:23.893Z,100252.22
2023-03-29T14:17:58.956Z,100249.69
2023-03-29T14:20:29.050Z,100256.03
2023-03-29T14:22:58.878Z,100251.78
2023-03-29T14:25:33.533Z,100253.81
2023-03-29T14:28:19.849Z,100252.38
2023-03-29T14:30:49.803Z,100258.41
2023-03-29T14:33:27.484Z,100239.84
2023-03-29T14:35:56.057Z,100250.25
2023-03-29T14:39:36.141Z,100248.22
2023-03-29T14:42:04.729Z,100241.00
2023-03-29T14:44:35.058Z,100230.06
2023-03-29T14:47:06.020Z,100227.50
2023-03-29T14:49:34.283Z,100221.13
2023-03-29T14:52:02.841Z,100216.88
2023-03-29T14:54:36.335Z,100222.41
2023-03-29T14:57:06.701Z,100212.44
2023-03-29T14:59:38.369Z,100216.16
2023-03-29T15:02:23.710Z,100214.13
2023-03-29T15:04:57.470Z,100208.41
2023-03-29T15:07:29.373Z,100216.03
2023-03-29T15:10:01.035Z,100216.44
2023-03-29T15:12:32.384Z,100211.78
2023-03-29T15:15:10.295Z,100213.06
2023-03-29T15:17:51.048Z,100204.47
2023-03-29T15:20:23.418Z,100209.78
2023-03-29T15:23:00.541Z,100218.28
2023-03-29T15:25:34.255Z,100217.69
2023-03-29T15:28:02.365Z,100219.75
2023-03-29T15:30:35.474Z,100208.84
2023-03-29T15:33:14.698Z,100212.50
2023-03-29T15:35:46.301Z,100197.84
2023-03-29T15:38:14.620Z,100205.75
2023-03-29T15:40:44.357Z,100200.84
2023-03-29T15:43:13.188Z,100196.25
2023-03-29T15:45:41.530Z,100205.78
2023-03-29T15:48:17.371Z,100201.53
2023-03-29T15:50:46.808Z,100195.38
2023-03-29T15:53:18.540Z,100200.38
2023-03-29T15:55:51.465Z,100199.41
2023-03-29T15:58:27.047Z,100203.91
2023-03-29T16:03:51.347Z,100196.03
2023-03-29T16:06:22.269Z,100200.13
2023-03-29T16:08:50.531Z,100195.88
2023-03-29T16:11:20.396Z,100200.09
2023-03-29T16:13:48.646Z,100189.66
2023-03-29T16:16:17.161Z,100195.47
2023-03-29T16:18:47.632Z,100189.69
2023-03-29T16:21:18.094Z,100183.81
2023-03-29T16:23:47.431Z,100187.75
2023-03-29T16:26:18.619Z,100177.34
2023-03-29T16:28:48.129Z,100170.13
2023-03-29T16:31:18.879Z,100172.91
2023-03-29T16:33:49.287Z,100167.63
2023-03-29T16:36:17.535Z,100157.97
2023-03-29T16:38:45.998Z,100153.06
2023-03-29T16:41:16.753Z,100154.47
2023-03-29T16:43:45.414Z,100150.38
2023-03-29T16:46:17.512Z,100145.22
2023-03-29T16:48:46.351Z,100139.28
2023-03-29T16:51:14.604Z,100141.09
2023-03-29T16:53:43.157Z,100134.06
2023-03-29T16:56:11.820Z,100129.91
2023-03-29T16:58:43.437Z,100138.50
2023-03-29T17:01:13.506Z,100131.16
2023-03-29T17:03:44.301Z,100120.75
2023-03-29T17:06:15.004Z,100120.38
2023-03-29T17:08:43.409Z,100122.53
2023-03-29T17:11:13.114Z,100124.69
2023-03-29T17:13:41.296Z,100124.09
2023-03-29T17:16:09.742Z,100122.78
2023-03-29T17:18:40.286Z,100122.94
2023-03-29T17:21:10.366Z,100118.69
2023-03-29T17:23:38.634Z,100115.63
2023-03-29T17:26:08.084Z,100110.59
2023-03-29T17:28:38.556Z,100110.81
2023-03-29T17:31:08.208Z,100110.22
2023-03-29T17:33:36.704Z,100110.53
2023-03-29T17:36:05.917Z,100113.56
2023-03-29T17:38:36.162Z,100115.56
2023-03-29T17:41:07.009Z,100111.47
2023-03-29T17:43:36.466Z,100118.81
2023-03-29T17:46:05.145Z,100103.84
2023-03-29T17:48:33.937Z,100111.09
2023-03-29T17:51:04.303Z,100114.88
2023-03-29T17:53:32.633Z,100110.63
2023-03-29T17:56:02.399Z,100102.81
2023-03-29T17:58:30.787Z,100109.13
2023-03-29T18:01:00.974Z,100105.81
2023-03-29T18:03:29.316Z,100095.47
2023-03-29T18:05:57.598Z,100103.69
2023-03-29T18:08:25.899Z,100113.84
2023-03-29T18:10:54.011Z,100108.72
2023-03-29T18:13:25.519Z,100105.25
2023-03-29T18:15:56.478Z,100112.47
2023-03-29T18:18:24.766Z,100103.91
2023-03-29T18:20:52.916Z,100101.13
2023-03-29T18:23:21.514Z,100118.31
2023-03-29T18:25:49.744Z,100131.88
2023-03-29T18:28:20.791Z,100118.63
2023-03-29T18:30:53.115Z,100115.28
2023-03-29T18:33:21.262Z,100106.59
2023-03-29T18:35:50.576Z,100121.91
2023-03-29T18:38:20.130Z,100124.47
2023-03-29T18:40:48.333Z,100106.59
2023-03-29T18:43:17.140Z,100109.22
2023-03-29T18:45:46.000Z,100105.91
2023-03-29T18:48:16.070Z,100110.28
2023-03-29T18:50:46.448Z,100112.03
2023-03-29T18:53:15.164Z,100102.56
2023-03-29T18:55:43.619Z,100109.91
2023-03-29T18:58:12.257Z,100100.50
2023-03-29T19:00:43.908Z,100086.75
2023-03-29T19:03:12.318Z,100097.88
2023-03-29T19:05:42.258Z,100097.81
2023-03-29T19:08:10.601Z,100097.00
2023-03-29T19:10:39.951Z,100099.66
2023-03-29T19:13:08.280Z,100098.38
2023-03-29T19:15:36.448Z,100087.81
2023-03-29T19:18:04.753Z,100083.72
2023-03-29T19:20:35.848Z,100084.78
2023-03-29T19:23:06.134Z,100060.28
2023-03-29T19:25:35.511Z,100060.28
2023-03-29T19:28:04.932Z,100074.47
2023-03-29T19:30:36.487Z,100072.88
2023-03-29T19:33:06.742Z,100074.56
2023-03-29T19:35:35.467Z,100057.84
2023-03-29T19:40:33.448Z,100044.75
2023-03-29T19:43:01.557Z,100051.91
2023-03-29T19:45:32.476Z,100050.28
2023-03-29T19:48:03.251Z,100046.69
2023-03-29T19:50:32.684Z,100037.13
2023-03-29T19:53:00.893Z,100033.72
2023-03-29T19:55:29.540Z,100031.19
2023-03-29T19:58:01.548Z,100026.00
2023-03-29T20:00:30.024Z,100020.84
2023-03-29T20:02:58.509Z,100018.41
2023-03-29T20:05:27.977Z,100018.53
2023-03-29T20:07:56.195Z,100005.38
2023-03-29T20:10:24.573Z,100002.97
2023-03-29T20:12:53.190Z,99998.84
2023-03-29T20:15:25.662Z,99994.34
2023-03-29T20:17:55.333Z,99997.91
2023-03-29T20:20:25.483Z,99996.09
2023-03-29T20:22:57.954Z,99991.59
2023-03-29T20:25:26.494Z,99984.69
2023-03-29T20:27:57.292Z,99974.91
2023-03-29T20:30:27.538Z,99976.56
2023-03-29T20:32:58.365Z,99977.44
2023-03-29T20:35:27.147Z,99976.56
2023-03-29T20:37:55.485Z,99975.63
2023-03-29T20:40:24.986Z,99970.66
2023-03-29T20:42:54.242Z,99959.22
2023-03-29T20:45:26.494Z,99958.69
2023-03-29T20:48:02.222Z,99958.91
2023-03-29T20:50:31.360Z,99958.31
2023-03-29T20:53:02.176Z,99951.44
2023-03-29T20:55:33.464Z,99956.84
2023-03-29T20:58:02.983Z,99960.66
2023-03-29T21:00:33.963Z,99949.25
2023-03-29T21:03:05.012Z,99949.81
2023-03-29T21:05:34.159Z,99944.44
2023-03-29T21:08:04.402Z,99942.91
2023-03-29T21:10:32.823Z,99933.28
2023-03-29T21:13:03.725Z,99930.72
2023-03-29T21:15:33.689Z,99926.53
2023-03-29T21:18:07.062Z,99924.88
2023-03-29T21:20:37.848Z,99925.88
2023-03-29T21:23:06.258Z,99919.88
2023-03-29T21:25:38.828Z,99916.59
2023-03-29T21:28:09.133Z,99909.53
2023-03-29T21:30:38.611Z,99909.66
2023-03-29T21:33:07.069Z,99907.91
2023-03-29T21:35:38.667Z,99907.78
2023-03-29T21:38:07.025Z,99906.03
2023-03-29T21:40:37.786Z,99910.56
2023-03-29T21:43:06.491Z,99910.56
2023-03-29T21:45:34.750Z,99907.81
2023-03-29T21:48:04.570Z,99907.81
2023-03-29T21:50:33.938Z,99910.44
2023-03-29T21:53:02.991Z,99902.56
2023-03-29T21:55:31.200Z,99901.78
2023-03-29T21:57:59.418Z,99905.50
2023-03-29T22:00:27.758Z,99899.50
2023-03-29T22:02:57.004Z,99907.50
2023-03-29T22:05:27.504Z,99894.34
2023-03-29T22:07:58.632Z,99894.59
2023-03-29T22:10:27.412Z,99899.19
2023-03-29T22:12:58.280Z,99893.97
2023-03-29T22:15:29.344Z,99899.38
2023-03-29T22:17:59.717Z,99891.13
2023-03-29T22:20:35.542Z,99897.13
2023-03-29T22:23:06.110Z,99897.31
2023-03-29T22:25:34.371Z,99891.84
2023-03-29T22:28:02.479Z,99887.56
2023-03-29T22:30:31.040Z,99894.97
2023-03-29T22:32:59.223Z,99886.34
2023-03-29T22:35:27.746Z,99882.66
2023-03-29T22:37:57.372Z,99879.22
2023-03-29T22:40:25.797Z,99885.56
2023-03-29T22:42:53.901Z,99863.13
2023-03-29T22:45:22.153Z,99891.56
2023-03-29T22:47:50.380Z,99892.09
2023-03-29T22:50:18.835Z,99887.16
2023-03-29T22:52:46.964Z,99890.59
2023-03-29T22:55:16.935Z,99894.63
2023-03-29T22:57:45.043Z,99899.91
2023-03-29T23:00:14.536Z,99899.75
2023-03-29T23:02:42.688Z,99877.66
2023-03-29T23:05:13.995Z,99884.66
2023-03-29T23:07:42.001Z,99880.31
2023-03-29T23:10:16.343Z,99881.28
2023-03-29T23:12:44.460Z,99871.53
2023-03-29T23:15:13.874Z,99879.41
2023-03-29T23:17:42.128Z,99871.38
2023-03-29T23:20:13.865Z,99857.25
2023-03-29T23:22:42.037Z,99856.41
2023-03-29T23:25:10.461Z,99848.09
2023-03-29T23:27:40.075Z,99832.06
2023-03-29T23:30:11.748Z,99825.56
2023-03-29T23:32:40.158Z,99836.03
2023-03-29T23:35:08.782Z,99832.31
2023-03-29T23:37:39.460Z,99789.50
2023-03-29T23:40:11.664Z,99810.94
2023-03-29T23:42:41.911Z,99817.94
2023-03-29T23:45:12.687Z,99813.38
2023-03-29T23:47:41.514Z,99826.88
2023-03-29T23:50:11.999Z,99821.16
2023-03-29T23:52:40.645Z,99827.38
2023-03-29T23:55:11.263Z,99829.78
2023-03-29T23:57:43.079Z,99823.41
